sensor_id;sensor_type;location;lat;lon;timestamp;temperature;humidity
7842;DHT22;3966;51.052;13.820;2023-06-22T00:00:55;21.20;99.90
7842;DHT22;3966;51.052;13.820;2023-06-22T00:03:23;21.20;99.90
7842;DHT22;3966;51.052;13.820;2023-06-22T00:05:52;21.20;99.90
7842;DHT22;3966;51.052;13.820;2023-06-22T00:08:19;21.20;99.90
7842;DHT22;3966;51.052;13.820;2023-06-22T00:10:45;21.20;99.90
7842;DHT22;3966;51.052;13.820;2023-06-22T00:13:12;21.10;99.90
7842;DHT22;3966;51.052;13.820;2023-06-22T00:15:39;21.00;99.90
7842;DHT22;3966;51.052;13.820;2023-06-22T00:18:06;21.00;99.90
7842;DHT22;3966;51.052;13.820;2023-06-22T00:20:32;20.90;99.90
7842;DHT22;3966;51.052;13.820;2023-06-22T00:23:02;20.90;99.90
7842;DHT22;3966;51.052;13.820;2023-06-22T00:25:39;20.90;99.90
7842;DHT22;3966;51.052;13.820;2023-06-22T00:28:08;20.90;99.90
7842;DHT22;3966;51.052;13.820;2023-06-22T00:30:34;20.80;99.90
7842;DHT22;3966;51.052;13.820;2023-06-22T00:33:00;20.80;99.90
7842;DHT22;3966;51.052;13.820;2023-06-22T00:35:26;20.80;99.90
7842;DHT22;3966;51.052;13.820;2023-06-22T00:37:56;20.70;99.90
7842;DHT22;3966;51.052;13.820;2023-06-22T00:40:30;20.70;99.90
7842;DHT22;3966;51.052;13.820;2023-06-22T00:42:56;20.70;99.90
7842;DHT22;3966;51.052;13.820;2023-06-22T00:45:23;20.70;99.90
7842;DHT22;3966;51.052;13.820;2023-06-22T00:47:53;20.70;99.90
7842;DHT22;3966;51.052;13.820;2023-06-22T00:50:21;20.50;99.90
7842;DHT22;3966;51.052;13.820;2023-06-22T00:52:58;20.40;99.90
7842;DHT22;3966;51.052;13.820;2023-06-22T00:55:24;20.40;99.90
7842;DHT22;3966;51.052;13.820;2023-06-22T00:57:51;20.40;99.90
7842;DHT22;3966;51.052;13.820;2023-06-22T01:00:23;20.30;99.90
7842;DHT22;3966;51.052;13.820;2023-06-22T01:02:53;20.30;99.90
7842;DHT22;3966;51.052;13.820;2023-06-22T01:05:22;20.40;99.90
7842;DHT22;3966;51.052;13.820;2023-06-22T01:11:01;20.40;99.90
7842;DHT22;3966;51.052;13.820;2023-06-22T01:13:35;20.50;99.90
7842;DHT22;3966;51.052;13.820;2023-06-22T01:16:16;20.40;99.90
7842;DHT22;3966;51.052;13.820;2023-06-22T01:18:43;20.30;99.90
7842;DHT22;3966;51.052;13.820;2023-06-22T01:21:14;20.40;99.90
7842;DHT22;3966;51.052;13.820;2023-06-22T01:24:18;20.40;99.90
7842;DHT22;3966;51.052;13.820;2023-06-22T01:26:59;20.40;99.90
7842;DHT22;3966;51.052;13.820;2023-06-22T01:29:27;20.30;99.90
7842;DHT22;3966;51.052;13.820;2023-06-22T01:31:55;20.30;99.90
7842;DHT22;3966;51.052;13.820;2023-06-22T01:34:22;20.30;99.90
7842;DHT22;3966;51.052;13.820;2023-06-22T01:36:49;20.30;99.90
7842;DHT22;3966;51.052;13.820;2023-06-22T01:39:15;20.30;99.90
7842;DHT22;3966;51.052;13.820;2023-06-22T01:41:42;20.30;99.90
7842;DHT22;3966;51.052;13.820;2023-06-22T01:44:09;20.20;99.90
7842;DHT22;3966;51.052;13.820;2023-06-22T01:46:36;20.20;99.90
7842;DHT22;3966;51.052;13.820;2023-06-22T01:49:03;20.20;99.90
7842;DHT22;3966;51.052;13.820;2023-06-22T01:51:29;20.20;99.90
7842;DHT22;3966;51.052;13.820;2023-06-22T01:53:55;20.10;99.90
7842;DHT22;3966;51.052;13.820;2023-06-22T01:56:21;20.20;99.90
7842;DHT22;3966;51.052;13.820;2023-06-22T01:59:00;20.00;99.90
7842;DHT22;3966;51.052;13.820;2023-06-22T02:01:39;20.00;99.90
7842;DHT22;3966;51.052;13.820;2023-06-22T02:04:12;19.80;99.90
7842;DHT22;3966;51.052;13.820;2023-06-22T02:06:39;19.70;99.90
7842;DHT22;3966;51.052;13.820;2023-06-22T02:09:12;19.90;99.90
7842;DHT22;3966;51.052;13.820;2023-06-22T02:11:41;19.90;99.90
7842;DHT22;3966;51.052;13.820;2023-06-22T02:14:08;19.90;99.90
7842;DHT22;3966;51.052;13.820;2023-06-22T02:16:34;19.80;99.90
7842;DHT22;3966;51.052;13.820;2023-06-22T02:19:01;19.60;99.90
7842;DHT22;3966;51.052;13.820;2023-06-22T02:21:31;19.50;99.90
7842;DHT22;3966;51.052;13.820;2023-06-22T02:23:58;19.60;99.90
7842;DHT22;3966;51.052;13.820;2023-06-22T02:26:24;19.60;99.90
7842;DHT22;3966;51.052;13.820;2023-06-22T02:28:50;19.50;99.90
7842;DHT22;3966;51.052;13.820;2023-06-22T02:31:16;19.50;99.90
7842;DHT22;3966;51.052;13.820;2023-06-22T02:33:41;19.60;99.90
7842;DHT22;3966;51.052;13.820;2023-06-22T02:36:07;19.60;99.90
7842;DHT22;3966;51.052;13.820;2023-06-22T02:38:35;19.50;99.90
7842;DHT22;3966;51.052;13.820;2023-06-22T02:41:02;19.50;99.90
7842;DHT22;3966;51.052;13.820;2023-06-22T02:43:28;19.50;99.90
7842;DHT22;3966;51.052;13.820;2023-06-22T02:45:54;19.50;99.90
7842;DHT22;3966;51.052;13.820;2023-06-22T02:48:19;19.60;99.90
7842;DHT22;3966;51.052;13.820;2023-06-22T02:50:45;19.50;99.90
7842;DHT22;3966;51.052;13.820;2023-06-22T02:53:10;19.50;99.90
7842;DHT22;3966;51.052;13.820;2023-06-22T02:55:36;19.50;99.90
7842;DHT22;3966;51.052;13.820;2023-06-22T02:58:02;19.30;99.90
7842;DHT22;3966;51.052;13.820;2023-06-22T03:00:30;19.30;99.90
7842;DHT22;3966;51.052;13.820;2023-06-22T03:02:57;19.30;99.90
7842;DHT22;3966;51.052;13.820;2023-06-22T03:05:23;19.30;99.90
7842;DHT22;3966;51.052;13.820;2023-06-22T03:07:49;19.30;99.90
7842;DHT22;3966;51.052;13.820;2023-06-22T03:10:15;19.30;99.90
7842;DHT22;3966;51.052;13.820;2023-06-22T03:12:42;19.30;99.90
7842;DHT22;3966;51.052;13.820;2023-06-22T03:15:10;19.30;99.90
7842;DHT22;3966;51.052;13.820;2023-06-22T03:17:37;19.20;99.90
7842;DHT22;3966;51.052;13.820;2023-06-22T03:20:04;19.20;99.90
7842;DHT22;3966;51.052;13.820;2023-06-22T03:22:40;19.20;99.90
7842;DHT22;3966;51.052;13.820;2023-06-22T03:25:07;19.20;99.90
7842;DHT22;3966;51.052;13.820;2023-06-22T03:27:38;19.20;99.90
7842;DHT22;3966;51.052;13.820;2023-06-22T03:30:05;19.20;99.90
7842;DHT22;3966;51.052;13.820;2023-06-22T03:32:30;19.10;99.90
7842;DHT22;3966;51.052;13.820;2023-06-22T03:34:56;19.10;99.90
7842;DHT22;3966;51.052;13.820;2023-06-22T03:37:24;19.10;99.90
7842;DHT22;3966;51.052;13.820;2023-06-22T03:39:50;19.20;99.90
7842;DHT22;3966;51.052;13.820;2023-06-22T03:42:15;19.20;99.90
7842;DHT22;3966;51.052;13.820;2023-06-22T03:44:41;19.10;99.90
7842;DHT22;3966;51.052;13.820;2023-06-22T03:47:07;19.10;99.90
7842;DHT22;3966;51.052;13.820;2023-06-22T03:49:33;19.20;99.90
7842;DHT22;3966;51.052;13.820;2023-06-22T03:52:00;19.10;99.90
7842;DHT22;3966;51.052;13.820;2023-06-22T03:54:26;19.10;99.90
7842;DHT22;3966;51.052;13.820;2023-06-22T03:56:53;19.20;99.90
7842;DHT22;3966;51.052;13.820;2023-06-22T03:59:18;19.20;99.90
7842;DHT22;3966;51.052;13.820;2023-06-22T04:01:44;19.20;99.90
7842;DHT22;3966;51.052;13.820;2023-06-22T04:04:10;19.30;99.90
7842;DHT22;3966;51.052;13.820;2023-06-22T04:06:35;19.30;99.90
7842;DHT22;3966;51.052;13.820;2023-06-22T04:09:01;19.30;99.90
7842;DHT22;3966;51.052;13.820;2023-06-22T04:11:27;19.30;99.90
7842;DHT22;3966;51.052;13.820;2023-06-22T04:13:53;19.30;99.90
7842;DHT22;3966;51.052;13.820;2023-06-22T04:16:19;19.30;99.90
7842;DHT22;3966;51.052;13.820;2023-06-22T04:18:44;19.30;99.90
7842;DHT22;3966;51.052;13.820;2023-06-22T04:21:10;19.30;99.90
7842;DHT22;3966;51.052;13.820;2023-06-22T04:23:36;19.30;99.90
7842;DHT22;3966;51.052;13.820;2023-06-22T04:26:02;19.30;99.90
7842;DHT22;3966;51.052;13.820;2023-06-22T04:28:27;19.30;99.90
7842;DHT22;3966;51.052;13.820;2023-06-22T04:30:53;19.30;99.90
7842;DHT22;3966;51.052;13.820;2023-06-22T04:33:23;19.40;99.90
7842;DHT22;3966;51.052;13.820;2023-06-22T04:35:49;19.40;99.90
7842;DHT22;3966;51.052;13.820;2023-06-22T04:38:14;19.50;99.90
7842;DHT22;3966;51.052;13.820;2023-06-22T04:40:40;19.30;99.90
7842;DHT22;3966;51.052;13.820;2023-06-22T04:43:06;19.30;99.90
7842;DHT22;3966;51.052;13.820;2023-06-22T04:45:32;19.40;99.90
7842;DHT22;3966;51.052;13.820;2023-06-22T04:47:58;19.40;99.90
7842;DHT22;3966;51.052;13.820;2023-06-22T04:50:24;19.40;99.90
7842;DHT22;3966;51.052;13.820;2023-06-22T04:52:51;19.30;99.90
7842;DHT22;3966;51.052;13.820;2023-06-22T04:55:17;19.40;99.90
7842;DHT22;3966;51.052;13.820;2023-06-22T04:57:47;19.40;99.90
7842;DHT22;3966;51.052;13.820;2023-06-22T05:00:23;19.50;99.90
7842;DHT22;3966;51.052;13.820;2023-06-22T05:02:49;19.60;99.90
7842;DHT22;3966;51.052;13.820;2023-06-22T05:05:15;19.70;99.90
7842;DHT22;3966;51.052;13.820;2023-06-22T05:07:45;19.80;99.90
7842;DHT22;3966;51.052;13.820;2023-06-22T05:10:14;19.80;99.90
7842;DHT22;3966;51.052;13.820;2023-06-22T05:12:40;19.90;99.90
7842;DHT22;3966;51.052;13.820;2023-06-22T05:15:10;19.90;99.90
7842;DHT22;3966;51.052;13.820;2023-06-22T05:17:36;20.00;99.90
7842;DHT22;3966;51.052;13.820;2023-06-22T05:20:11;20.10;99.90
7842;DHT22;3966;51.052;13.820;2023-06-22T05:22:37;20.20;99.90
7842;DHT22;3966;51.052;13.820;2023-06-22T05:25:04;20.20;99.90
7842;DHT22;3966;51.052;13.820;2023-06-22T05:27:31;20.20;99.90
7842;DHT22;3966;51.052;13.820;2023-06-22T05:29:57;20.40;99.90
7842;DHT22;3966;51.052;13.820;2023-06-22T05:32:23;20.40;99.90
7842;DHT22;3966;51.052;13.820;2023-06-22T05:34:48;20.40;99.90
7842;DHT22;3966;51.052;13.820;2023-06-22T05:37:14;20.40;99.90
7842;DHT22;3966;51.052;13.820;2023-06-22T05:39:39;20.50;99.90
7842;DHT22;3966;51.052;13.820;2023-06-22T05:42:07;20.60;99.90
7842;DHT22;3966;51.052;13.820;2023-06-22T05:44:33;20.70;99.90
7842;DHT22;3966;51.052;13.820;2023-06-22T05:46:59;20.70;99.90
7842;DHT22;3966;51.052;13.820;2023-06-22T05:49:24;20.80;99.90
7842;DHT22;3966;51.052;13.820;2023-06-22T05:51:55;20.80;99.90
7842;DHT22;3966;51.052;13.820;2023-06-22T05:54:20;20.90;99.90
7842;DHT22;3966;51.052;13.820;2023-06-22T05:56:46;20.90;99.90
7842;DHT22;3966;51.052;13.820;2023-06-22T05:59:12;20.90;99.90
7842;DHT22;3966;51.052;13.820;2023-06-22T06:01:37;21.00;99.90
7842;DHT22;3966;51.052;13.820;2023-06-22T06:04:03;21.10;99.90
7842;DHT22;3966;51.052;13.820;2023-06-22T06:06:29;21.10;99.90
7842;DHT22;3966;51.052;13.820;2023-06-22T06:08:55;21.20;99.90
7842;DHT22;3966;51.052;13.820;2023-06-22T06:11:22;21.30;99.90
7842;DHT22;3966;51.052;13.820;2023-06-22T06:13:47;21.40;99.90
7842;DHT22;3966;51.052;13.820;2023-06-22T06:16:13;21.50;99.90
7842;DHT22;3966;51.052;13.820;2023-06-22T06:18:38;21.60;99.90
7842;DHT22;3966;51.052;13.820;2023-06-22T06:21:04;21.80;99.90
7842;DHT22;3966;51.052;13.820;2023-06-22T06:23:30;21.90;99.90
7842;DHT22;3966;51.052;13.820;2023-06-22T06:25:56;22.00;99.90
7842;DHT22;3966;51.052;13.820;2023-06-22T06:28:22;22.20;99.90
7842;DHT22;3966;51.052;13.820;2023-06-22T06:30:47;22.40;99.90
7842;DHT22;3966;51.052;13.820;2023-06-22T06:33:13;22.60;99.90
7842;DHT22;3966;51.052;13.820;2023-06-22T06:35:39;22.80;99.90
7842;DHT22;3966;51.052;13.820;2023-06-22T06:38:05;22.90;99.90
7842;DHT22;3966;51.052;13.820;2023-06-22T06:40:30;23.00;99.90
7842;DHT22;3966;51.052;13.820;2023-06-22T06:42:56;23.20;99.90
7842;DHT22;3966;51.052;13.820;2023-06-22T06:45:23;23.30;99.90
7842;DHT22;3966;51.052;13.820;2023-06-22T06:47:49;23.40;99.90
7842;DHT22;3966;51.052;13.820;2023-06-22T06:50:15;23.50;99.90
7842;DHT22;3966;51.052;13.820;2023-06-22T06:52:41;23.60;99.90
7842;DHT22;3966;51.052;13.820;2023-06-22T06:55:08;23.70;99.90
7842;DHT22;3966;51.052;13.820;2023-06-22T06:57:37;23.70;99.90
7842;DHT22;3966;51.052;13.820;2023-06-22T07:00:10;23.70;99.90
7842;DHT22;3966;51.052;13.820;2023-06-22T07:02:41;23.70;99.90
7842;DHT22;3966;51.052;13.820;2023-06-22T07:05:09;23.70;99.90
7842;DHT22;3966;51.052;13.820;2023-06-22T07:07:35;23.80;99.90
7842;DHT22;3966;51.052;13.820;2023-06-22T07:10:00;24.00;99.90
7842;DHT22;3966;51.052;13.820;2023-06-22T07:12:26;24.10;99.90
7842;DHT22;3966;51.052;13.820;2023-06-22T07:14:52;24.30;99.90
7842;DHT22;3966;51.052;13.820;2023-06-22T07:17:18;24.30;99.90
7842;DHT22;3966;51.052;13.820;2023-06-22T07:19:44;24.40;99.90
7842;DHT22;3966;51.052;13.820;2023-06-22T07:22:09;24.50;99.90
7842;DHT22;3966;51.052;13.820;2023-06-22T07:24:35;24.60;99.90
7842;DHT22;3966;51.052;13.820;2023-06-22T07:27:01;24.70;99.90
7842;DHT22;3966;51.052;13.820;2023-06-22T07:29:27;24.80;99.90
7842;DHT22;3966;51.052;13.820;2023-06-22T07:31:53;24.90;99.90
7842;DHT22;3966;51.052;13.820;2023-06-22T07:34:19;25.10;99.90
7842;DHT22;3966;51.052;13.820;2023-06-22T07:36:45;25.40;99.90
7842;DHT22;3966;51.052;13.820;2023-06-22T07:39:11;25.50;99.90
7842;DHT22;3966;51.052;13.820;2023-06-22T07:41:39;25.80;99.90
7842;DHT22;3966;51.052;13.820;2023-06-22T07:44:06;26.00;99.90
7842;DHT22;3966;51.052;13.820;2023-06-22T07:46:32;25.80;99.90
7842;DHT22;3966;51.052;13.820;2023-06-22T07:48:58;25.80;99.90
7842;DHT22;3966;51.052;13.820;2023-06-22T07:51:25;25.80;99.90
7842;DHT22;3966;51.052;13.820;2023-06-22T07:53:51;26.10;99.90
7842;DHT22;3966;51.052;13.820;2023-06-22T07:56:16;26.20;99.90
7842;DHT22;3966;51.052;13.820;2023-06-22T07:58:45;26.40;99.90
7842;DHT22;3966;51.052;13.820;2023-06-22T08:01:12;26.50;99.90
7842;DHT22;3966;51.052;13.820;2023-06-22T08:03:38;26.50;99.90
7842;DHT22;3966;51.052;13.820;2023-06-22T08:06:05;26.70;99.90
7842;DHT22;3966;51.052;13.820;2023-06-22T08:08:31;26.80;99.90
7842;DHT22;3966;51.052;13.820;2023-06-22T08:10:57;26.90;99.90
7842;DHT22;3966;51.052;13.820;2023-06-22T08:13:23;27.00;99.90
7842;DHT22;3966;51.052;13.820;2023-06-22T08:15:49;27.00;99.90
7842;DHT22;3966;51.052;13.820;2023-06-22T08:18:14;27.10;99.90
7842;DHT22;3966;51.052;13.820;2023-06-22T08:20:41;27.20;99.90
7842;DHT22;3966;51.052;13.820;2023-06-22T08:23:07;27.40;99.90
7842;DHT22;3966;51.052;13.820;2023-06-22T08:25:33;27.40;99.90
7842;DHT22;3966;51.052;13.820;2023-06-22T08:28:00;27.40;99.90
7842;DHT22;3966;51.052;13.820;2023-06-22T08:30:26;27.40;99.90
7842;DHT22;3966;51.052;13.820;2023-06-22T08:32:52;27.30;99.90
7842;DHT22;3966;51.052;13.820;2023-06-22T08:35:19;27.30;99.90
7842;DHT22;3966;51.052;13.820;2023-06-22T08:37:45;27.30;99.90
7842;DHT22;3966;51.052;13.820;2023-06-22T08:40:18;27.40;99.90
7842;DHT22;3966;51.052;13.820;2023-06-22T08:42:45;27.50;99.90
7842;DHT22;3966;51.052;13.820;2023-06-22T08:45:12;27.50;99.90
7842;DHT22;3966;51.052;13.820;2023-06-22T08:47:38;27.60;99.90
7842;DHT22;3966;51.052;13.820;2023-06-22T08:50:04;27.60;99.90
7842;DHT22;3966;51.052;13.820;2023-06-22T08:52:31;27.60;99.90
7842;DHT22;3966;51.052;13.820;2023-06-22T08:54:56;27.70;99.90
7842;DHT22;3966;51.052;13.820;2023-06-22T08:57:23;27.80;99.90
7842;DHT22;3966;51.052;13.820;2023-06-22T08:59:49;27.90;99.90
7842;DHT22;3966;51.052;13.820;2023-06-22T09:02:17;27.90;99.90
7842;DHT22;3966;51.052;13.820;2023-06-22T09:04:43;27.90;99.90
7842;DHT22;3966;51.052;13.820;2023-06-22T09:07:09;28.10;99.90
7842;DHT22;3966;51.052;13.820;2023-06-22T09:09:34;28.10;99.90
7842;DHT22;3966;51.052;13.820;2023-06-22T09:12:00;28.20;99.90
7842;DHT22;3966;51.052;13.820;2023-06-22T09:14:26;28.30;99.90
7842;DHT22;3966;51.052;13.820;2023-06-22T09:16:51;28.40;99.90
7842;DHT22;3966;51.052;13.820;2023-06-22T09:19:17;28.60;99.90
7842;DHT22;3966;51.052;13.820;2023-06-22T09:21:43;28.50;99.90
7842;DHT22;3966;51.052;13.820;2023-06-22T09:24:08;28.60;99.90
7842;DHT22;3966;51.052;13.820;2023-06-22T09:26:34;28.60;99.90
7842;DHT22;3966;51.052;13.820;2023-06-22T09:29:00;28.70;99.90
7842;DHT22;3966;51.052;13.820;2023-06-22T09:31:25;28.70;99.90
7842;DHT22;3966;51.052;13.820;2023-06-22T09:33:54;28.80;99.90
7842;DHT22;3966;51.052;13.820;2023-06-22T09:36:23;28.90;99.90
7842;DHT22;3966;51.052;13.820;2023-06-22T09:38:49;29.10;99.90
7842;DHT22;3966;51.052;13.820;2023-06-22T09:41:21;29.20;99.90
7842;DHT22;3966;51.052;13.820;2023-06-22T09:43:46;29.30;99.90
7842;DHT22;3966;51.052;13.820;2023-06-22T09:46:14;29.40;99.90
7842;DHT22;3966;51.052;13.820;2023-06-22T09:48:40;29.50;99.90
7842;DHT22;3966;51.052;13.820;2023-06-22T09:51:06;29.70;99.90
7842;DHT22;3966;51.052;13.820;2023-06-22T09:53:32;29.90;99.90
7842;DHT22;3966;51.052;13.820;2023-06-22T09:55:57;29.90;99.90
7842;DHT22;3966;51.052;13.820;2023-06-22T09:58:23;29.90;99.90
7842;DHT22;3966;51.052;13.820;2023-06-22T10:00:49;30.00;99.90
7842;DHT22;3966;51.052;13.820;2023-06-22T10:03:14;30.10;99.90
7842;DHT22;3966;51.052;13.820;2023-06-22T10:05:40;30.00;99.90
7842;DHT22;3966;51.052;13.820;2023-06-22T10:08:06;29.90;99.90
7842;DHT22;3966;51.052;13.820;2023-06-22T10:10:33;29.80;99.90
7842;DHT22;3966;51.052;13.820;2023-06-22T10:13:07;29.90;99.90
7842;DHT22;3966;51.052;13.820;2023-06-22T10:15:34;29.90;99.90
7842;DHT22;3966;51.052;13.820;2023-06-22T10:18:00;29.80;99.90
7842;DHT22;3966;51.052;13.820;2023-06-22T10:20:25;29.90;99.90
7842;DHT22;3966;51.052;13.820;2023-06-22T10:22:52;30.00;99.90
7842;DHT22;3966;51.052;13.820;2023-06-22T10:25:17;29.90;99.90
7842;DHT22;3966;51.052;13.820;2023-06-22T10:27:43;30.10;99.90
7842;DHT22;3966;51.052;13.820;2023-06-22T10:30:10;30.30;99.90
7842;DHT22;3966;51.052;13.820;2023-06-22T10:32:38;30.00;99.90
7842;DHT22;3966;51.052;13.820;2023-06-22T10:35:05;30.10;99.90
7842;DHT22;3966;51.052;13.820;2023-06-22T10:37:31;29.90;99.90
7842;DHT22;3966;51.052;13.820;2023-06-22T10:39:57;30.00;99.90
7842;DHT22;3966;51.052;13.820;2023-06-22T10:42:23;30.10;99.90
7842;DHT22;3966;51.052;13.820;2023-06-22T10:44:48;30.10;99.90
7842;DHT22;3966;51.052;13.820;2023-06-22T10:47:14;30.20;99.90
7842;DHT22;3966;51.052;13.820;2023-06-22T10:49:41;30.50;99.90
7842;DHT22;3966;51.052;13.820;2023-06-22T10:52:08;30.60;99.90
7842;DHT22;3966;51.052;13.820;2023-06-22T10:54:34;30.80;99.90
7842;DHT22;3966;51.052;13.820;2023-06-22T10:57:01;31.00;99.90
7842;DHT22;3966;51.052;13.820;2023-06-22T10:59:27;31.20;99.90
7842;DHT22;3966;51.052;13.820;2023-06-22T11:01:54;31.50;98.90
7842;DHT22;3966;51.052;13.820;2023-06-22T11:04:20;31.40;99.20
7842;DHT22;3966;51.052;13.820;2023-06-22T11:06:47;31.10;99.90
7842;DHT22;3966;51.052;13.820;2023-06-22T11:09:13;30.70;99.90
7842;DHT22;3966;51.052;13.820;2023-06-22T11:11:44;30.40;99.90
7842;DHT22;3966;51.052;13.820;2023-06-22T11:14:09;30.50;99.90
7842;DHT22;3966;51.052;13.820;2023-06-22T11:16:35;30.60;99.90
7842;DHT22;3966;51.052;13.820;2023-06-22T11:19:00;30.20;99.90
7842;DHT22;3966;51.052;13.820;2023-06-22T11:21:26;30.30;99.90
7842;DHT22;3966;51.052;13.820;2023-06-22T11:23:52;30.50;99.90
7842;DHT22;3966;51.052;13.820;2023-06-22T11:26:17;30.30;99.90
7842;DHT22;3966;51.052;13.820;2023-06-22T11:28:43;30.40;99.90
7842;DHT22;3966;51.052;13.820;2023-06-22T11:31:09;30.10;99.90
7842;DHT22;3966;51.052;13.820;2023-06-22T11:33:34;30.30;99.90
7842;DHT22;3966;51.052;13.820;2023-06-22T11:36:00;30.50;99.90
7842;DHT22;3966;51.052;13.820;2023-06-22T11:38:26;30.90;99.90
7842;DHT22;3966;51.052;13.820;2023-06-22T11:40:51;31.20;99.20
7842;DHT22;3966;51.052;13.820;2023-06-22T11:43:17;31.10;99.60
7842;DHT22;3966;51.052;13.820;2023-06-22T11:45:42;31.20;99.50
7842;DHT22;3966;51.052;13.820;2023-06-22T11:48:08;31.60;98.20
7842;DHT22;3966;51.052;13.820;2023-06-22T11:50:34;32.10;96.70
7842;DHT22;3966;51.052;13.820;2023-06-22T11:53:02;32.20;95.80
7842;DHT22;3966;51.052;13.820;2023-06-22T11:55:28;32.40;96.40
7842;DHT22;3966;51.052;13.820;2023-06-22T11:57:56;32.40;94.70
7842;DHT22;3966;51.052;13.820;2023-06-22T12:00:24;32.30;96.00
7842;DHT22;3966;51.052;13.820;2023-06-22T12:02:52;32.40;95.00
7842;DHT22;3966;51.052;13.820;2023-06-22T12:05:20;32.20;95.20
7842;DHT22;3966;51.052;13.820;2023-06-22T12:07:49;31.90;96.20
7842;DHT22;3966;51.052;13.820;2023-06-22T12:10:15;31.70;96.40
7842;DHT22;3966;51.052;13.820;2023-06-22T12:12:42;31.50;97.90
7842;DHT22;3966;51.052;13.820;2023-06-22T12:15:09;32.10;95.80
7842;DHT22;3966;51.052;13.820;2023-06-22T12:17:35;32.60;95.10
7842;DHT22;3966;51.052;13.820;2023-06-22T12:20:01;32.60;94.30
7842;DHT22;3966;51.052;13.820;2023-06-22T12:22:28;32.70;93.80
7842;DHT22;3966;51.052;13.820;2023-06-22T12:24:53;32.60;94.30
7842;DHT22;3966;51.052;13.820;2023-06-22T12:27:19;32.60;94.50
7842;DHT22;3966;51.052;13.820;2023-06-22T12:29:46;32.80;93.10
7842;DHT22;3966;51.052;13.820;2023-06-22T12:32:11;32.70;93.10
7842;DHT22;3966;51.052;13.820;2023-06-22T12:34:42;32.90;92.00
7842;DHT22;3966;51.052;13.820;2023-06-22T12:37:08;33.00;91.50
7842;DHT22;3966;51.052;13.820;2023-06-22T12:39:34;33.30;91.20
7842;DHT22;3966;51.052;13.820;2023-06-22T12:42:00;33.90;90.00
7842;DHT22;3966;51.052;13.820;2023-06-22T12:44:25;34.20;89.70
7842;DHT22;3966;51.052;13.820;2023-06-22T12:46:51;33.70;87.70
7842;DHT22;3966;51.052;13.820;2023-06-22T12:49:17;33.90;86.60
7842;DHT22;3966;51.052;13.820;2023-06-22T12:51:43;34.30;86.70
7842;DHT22;3966;51.052;13.820;2023-06-22T12:54:09;34.60;86.30
7842;DHT22;3966;51.052;13.820;2023-06-22T12:56:36;34.60;86.00
7842;DHT22;3966;51.052;13.820;2023-06-22T12:59:02;33.90;86.80
7842;DHT22;3966;51.052;13.820;2023-06-22T13:01:28;33.60;86.90
7842;DHT22;3966;51.052;13.820;2023-06-22T13:03:55;33.50;88.00
7842;DHT22;3966;51.052;13.820;2023-06-22T13:06:21;33.20;89.40
7842;DHT22;3966;51.052;13.820;2023-06-22T13:08:46;33.00;90.50
7842;DHT22;3966;51.052;13.820;2023-06-22T13:11:12;32.80;91.00
7842;DHT22;3966;51.052;13.820;2023-06-22T13:13:38;33.40;90.40
7842;DHT22;3966;51.052;13.820;2023-06-22T13:16:04;33.90;88.80
7842;DHT22;3966;51.052;13.820;2023-06-22T13:18:30;34.10;87.60
7842;DHT22;3966;51.052;13.820;2023-06-22T13:20:56;34.00;88.20
7842;DHT22;3966;51.052;13.820;2023-06-22T13:23:23;34.10;89.20
7842;DHT22;3966;51.052;13.820;2023-06-22T13:25:49;34.00;90.10
7842;DHT22;3966;51.052;13.820;2023-06-22T13:28:15;33.70;88.80
7842;DHT22;3966;51.052;13.820;2023-06-22T13:30:41;33.70;88.80
7842;DHT22;3966;51.052;13.820;2023-06-22T13:33:08;33.30;90.00
7842;DHT22;3966;51.052;13.820;2023-06-22T13:35:34;33.30;90.00
7842;DHT22;3966;51.052;13.820;2023-06-22T13:38:00;33.60;90.30
7842;DHT22;3966;51.052;13.820;2023-06-22T13:40:26;33.70;90.40
7842;DHT22;3966;51.052;13.820;2023-06-22T13:42:52;33.90;90.00
7842;DHT22;3966;51.052;13.820;2023-06-22T13:45:18;33.50;89.30
7842;DHT22;3966;51.052;13.820;2023-06-22T13:47:45;34.00;88.50
7842;DHT22;3966;51.052;13.820;2023-06-22T13:50:10;34.50;86.20
7842;DHT22;3966;51.052;13.820;2023-06-22T13:52:38;35.00;84.90
7842;DHT22;3966;51.052;13.820;2023-06-22T13:55:05;35.10;83.80
7842;DHT22;3966;51.052;13.820;2023-06-22T13:57:32;35.40;82.60
7842;DHT22;3966;51.052;13.820;2023-06-22T13:59:59;35.70;81.60
7842;DHT22;3966;51.052;13.820;2023-06-22T14:02:26;35.70;80.40
7842;DHT22;3966;51.052;13.820;2023-06-22T14:04:53;35.00;82.10
7842;DHT22;3966;51.052;13.820;2023-06-22T14:07:19;35.00;83.40
7842;DHT22;3966;51.052;13.820;2023-06-22T14:09:47;35.10;82.20
7842;DHT22;3966;51.052;13.820;2023-06-22T14:12:13;35.30;81.70
7842;DHT22;3966;51.052;13.820;2023-06-22T14:14:39;35.00;81.90
7842;DHT22;3966;51.052;13.820;2023-06-22T14:17:05;34.20;82.40
7842;DHT22;3966;51.052;13.820;2023-06-22T14:19:31;34.20;84.80
7842;DHT22;3966;51.052;13.820;2023-06-22T14:21:56;35.00;82.80
7842;DHT22;3966;51.052;13.820;2023-06-22T14:24:23;35.60;79.10
7842;DHT22;3966;51.052;13.820;2023-06-22T14:26:48;35.70;78.10
7842;DHT22;3966;51.052;13.820;2023-06-22T14:29:14;35.50;78.60
7842;DHT22;3966;51.052;13.820;2023-06-22T14:31:40;35.50;79.30
7842;DHT22;3966;51.052;13.820;2023-06-22T14:34:06;35.30;79.60
7842;DHT22;3966;51.052;13.820;2023-06-22T14:36:32;35.20;80.10
7842;DHT22;3966;51.052;13.820;2023-06-22T14:38:57;35.00;81.20
7842;DHT22;3966;51.052;13.820;2023-06-22T14:41:23;34.90;81.90
7842;DHT22;3966;51.052;13.820;2023-06-22T14:43:50;34.80;82.30
7842;DHT22;3966;51.052;13.820;2023-06-22T14:46:19;34.60;83.00
7842;DHT22;3966;51.052;13.820;2023-06-22T14:48:45;34.60;82.50
7842;DHT22;3966;51.052;13.820;2023-06-22T14:51:12;34.60;83.00
7842;DHT22;3966;51.052;13.820;2023-06-22T14:53:37;34.50;83.90
7842;DHT22;3966;51.052;13.820;2023-06-22T14:56:03;34.20;84.50
7842;DHT22;3966;51.052;13.820;2023-06-22T14:58:32;34.10;85.70
7842;DHT22;3966;51.052;13.820;2023-06-22T15:01:02;34.40;84.80
7842;DHT22;3966;51.052;13.820;2023-06-22T15:03:29;34.80;84.40
7842;DHT22;3966;51.052;13.820;2023-06-22T15:05:56;35.20;84.10
7842;DHT22;3966;51.052;13.820;2023-06-22T15:08:22;35.90;81.80
7842;DHT22;3966;51.052;13.820;2023-06-22T15:10:47;36.30;78.60
7842;DHT22;3966;51.052;13.820;2023-06-22T15:13:13;36.40;77.70
7842;DHT22;3966;51.052;13.820;2023-06-22T15:15:39;36.60;77.70
7842;DHT22;3966;51.052;13.820;2023-06-22T15:18:04;36.60;77.20
7842;DHT22;3966;51.052;13.820;2023-06-22T15:20:30;36.10;78.00
7842;DHT22;3966;51.052;13.820;2023-06-22T15:22:57;35.70;78.40
7842;DHT22;3966;51.052;13.820;2023-06-22T15:25:23;35.30;79.30
7842;DHT22;3966;51.052;13.820;2023-06-22T15:27:48;34.90;81.30
7842;DHT22;3966;51.052;13.820;2023-06-22T15:30:14;34.80;81.80
7842;DHT22;3966;51.052;13.820;2023-06-22T15:32:44;34.80;81.10
7842;DHT22;3966;51.052;13.820;2023-06-22T15:35:13;35.60;80.10
7842;DHT22;3966;51.052;13.820;2023-06-22T15:37:40;36.00;79.30
7842;DHT22;3966;51.052;13.820;2023-06-22T15:40:06;36.40;77.30
7842;DHT22;3966;51.052;13.820;2023-06-22T15:42:32;36.30;78.20
7842;DHT22;3966;51.052;13.820;2023-06-22T15:44:57;36.30;77.30